sensor_id;sensor_type;location;lat;lon;timestamp;P1;durP1;ratioP1;P2;durP2;ratioP2
73150;SDS011;61354;50.758;6.106;2024-01-11T00:01:03;19.30;;;6.78;;
73150;SDS011;61354;50.758;6.106;2024-01-11T00:03:47;16.23;;;8.27;;
73150;SDS011;61354;50.758;6.106;2024-01-11T00:06:31;14.80;;;6.57;;
73150;SDS011;61354;50.758;6.106;2024-01-11T00:09:15;18.85;;;7.78;;
73150;SDS011;61354;50.758;6.106;2024-01-11T00:12:00;14.27;;;7.78;;
73150;SDS011;61354;50.758;6.106;2024-01-11T00:14:44;17.10;;;8.07;;
73150;SDS011;61354;50.758;6.106;2024-01-11T00:17:29;14.77;;;7.28;;
73150;SDS011;61354;50.758;6.106;2024-01-11T00:20:13;14.73;;;7.20;;
73150;SDS011;61354;50.758;6.106;2024-01-11T00:22:57;17.27;;;7.80;;
73150;SDS011;61354;50.758;6.106;2024-01-11T00:25:41;15.93;;;7.88;;
73150;SDS011;61354;50.758;6.106;2024-01-11T00:28:25;14.63;;;6.93;;
73150;SDS011;61354;50.758;6.106;2024-01-11T00:31:10;11.88;;;7.00;;
73150;SDS011;61354;50.758;6.106;2024-01-11T00:33:54;17.75;;;8.68;;
73150;SDS011;61354;50.758;6.106;2024-01-11T00:36:38;17.17;;;7.82;;
73150;SDS011;61354;50.758;6.106;2024-01-11T00:39:22;14.50;;;7.20;;
73150;SDS011;61354;50.758;6.106;2024-01-11T00:42:06;15.38;;;6.78;;
73150;SDS011;61354;50.758;6.106;2024-01-11T00:44:50;15.77;;;8.23;;
73150;SDS011;61354;50.758;6.106;2024-01-11T00:47:34;19.33;;;7.50;;
73150;SDS011;61354;50.758;6.106;2024-01-11T00:50:18;14.90;;;6.68;;
73150;SDS011;61354;50.758;6.106;2024-01-11T00:53:02;18.75;;;6.88;;
73150;SDS011;61354;50.758;6.106;2024-01-11T00:55:46;13.85;;;7.35;;
73150;SDS011;61354;50.758;6.106;2024-01-11T00:58:30;18.75;;;9.00;;
73150;SDS011;61354;50.758;6.106;2024-01-11T01:01:14;15.32;;;7.55;;
73150;SDS011;61354;50.758;6.106;2024-01-11T01:03:58;18.52;;;7.97;;
73150;SDS011;61354;50.758;6.106;2024-01-11T01:06:42;20.27;;;9.10;;
73150;SDS011;61354;50.758;6.106;2024-01-11T01:09:26;11.38;;;7.28;;
73150;SDS011;61354;50.758;6.106;2024-01-11T01:12:10;13.38;;;7.18;;
73150;SDS011;61354;50.758;6.106;2024-01-11T01:14:54;16.02;;;7.90;;
73150;SDS011;61354;50.758;6.106;2024-01-11T01:17:39;15.45;;;7.60;;
73150;SDS011;61354;50.758;6.106;2024-01-11T01:20:23;15.70;;;6.57;;
73150;SDS011;61354;50.758;6.106;2024-01-11T01:23:07;16.08;;;7.68;;
73150;SDS011;61354;50.758;6.106;2024-01-11T01:25:51;15.20;;;7.68;;
73150;SDS011;61354;50.758;6.106;2024-01-11T01:28:34;16.70;;;7.47;;
73150;SDS011;61354;50.758;6.106;2024-01-11T01:31:21;15.02;;;7.85;;
73150;SDS011;61354;50.758;6.106;2024-01-11T01:34:06;14.82;;;7.63;;
73150;SDS011;61354;50.758;6.106;2024-01-11T01:36:50;23.95;;;7.75;;
73150;SDS011;61354;50.758;6.106;2024-01-11T01:39:37;14.15;;;7.65;;
73150;SDS011;61354;50.758;6.106;2024-01-11T01:42:21;15.63;;;8.02;;
73150;SDS011;61354;50.758;6.106;2024-01-11T01:45:06;15.98;;;8.63;;
73150;SDS011;61354;50.758;6.106;2024-01-11T01:47:50;13.82;;;7.15;;
73150;SDS011;61354;50.758;6.106;2024-01-11T01:50:35;17.92;;;7.97;;
73150;SDS011;61354;50.758;6.106;2024-01-11T01:53:19;13.23;;;7.10;;
73150;SDS011;61354;50.758;6.106;2024-01-11T01:56:04;16.83;;;7.80;;
73150;SDS011;61354;50.758;6.106;2024-01-11T01:58:51;16.30;;;7.63;;
73150;SDS011;61354;50.758;6.106;2024-01-11T02:01:36;17.35;;;7.10;;
73150;SDS011;61354;50.758;6.106;2024-01-11T02:04:20;14.57;;;8.65;;
73150;SDS011;61354;50.758;6.106;2024-01-11T02:07:06;16.52;;;7.53;;
73150;SDS011;61354;50.758;6.106;2024-01-11T02:09:50;15.65;;;8.40;;
73150;SDS011;61354;50.758;6.106;2024-01-11T02:12:36;13.63;;;7.55;;
73150;SDS011;61354;50.758;6.106;2024-01-11T02:15:21;16.67;;;8.20;;
73150;SDS011;61354;50.758;6.106;2024-01-11T02:18:05;15.15;;;7.57;;
73150;SDS011;61354;50.758;6.106;2024-01-11T02:20:50;16.98;;;9.18;;
73150;SDS011;61354;50.758;6.106;2024-01-11T02:23:36;15.77;;;8.15;;
73150;SDS011;61354;50.758;6.106;2024-01-11T02:26:23;15.30;;;7.88;;
73150;SDS011;61354;50.758;6.106;2024-01-11T02:29:07;18.30;;;8.07;;
73150;SDS011;61354;50.758;6.106;2024-01-11T02:31:51;18.05;;;8.85;;
73150;SDS011;61354;50.758;6.106;2024-01-11T02:34:36;19.20;;;9.30;;
73150;SDS011;61354;50.758;6.106;2024-01-11T02:37:20;18.00;;;7.78;;
73150;SDS011;61354;50.758;6.106;2024-01-11T02:40:04;23.15;;;8.82;;
73150;SDS011;61354;50.758;6.106;2024-01-11T02:42:50;22.75;;;8.30;;
73150;SDS011;61354;50.758;6.106;2024-01-11T02:45:34;16.58;;;7.38;;
73150;SDS011;61354;50.758;6.106;2024-01-11T02:48:18;17.05;;;8.45;;
73150;SDS011;61354;50.758;6.106;2024-01-11T02:51:02;17.65;;;8.10;;
73150;SDS011;61354;50.758;6.106;2024-01-11T02:53:47;19.40;;;8.85;;
73150;SDS011;61354;50.758;6.106;2024-01-11T02:56:31;15.93;;;8.32;;
73150;SDS011;61354;50.758;6.106;2024-01-11T02:59:16;18.05;;;8.32;;
73150;SDS011;61354;50.758;6.106;2024-01-11T03:01:59;14.30;;;7.60;;
73150;SDS011;61354;50.758;6.106;2024-01-11T03:04:44;13.68;;;6.45;;
73150;SDS011;61354;50.758;6.106;2024-01-11T03:07:28;18.95;;;7.32;;
73150;SDS011;61354;50.758;6.106;2024-01-11T03:10:13;14.48;;;7.32;;
73150;SDS011;61354;50.758;6.106;2024-01-11T03:12:57;18.10;;;7.68;;
73150;SDS011;61354;50.758;6.106;2024-01-11T03:15:41;14.98;;;7.63;;
73150;SDS011;61354;50.758;6.106;2024-01-11T03:18:25;16.67;;;7.07;;
73150;SDS011;61354;50.758;6.106;2024-01-11T03:21:09;17.33;;;7.38;;
73150;SDS011;61354;50.758;6.106;2024-01-11T03:23:53;15.88;;;7.55;;
73150;SDS011;61354;50.758;6.106;2024-01-11T03:26:37;17.35;;;8.07;;
73150;SDS011;61354;50.758;6.106;2024-01-11T03:29:20;14.05;;;7.60;;
73150;SDS011;61354;50.758;6.106;2024-01-11T03:32:04;13.57;;;7.25;;
73150;SDS011;61354;50.758;6.106;2024-01-11T03:34:49;15.77;;;7.97;;
73150;SDS011;61354;50.758;6.106;2024-01-11T03:37:33;16.98;;;8.18;;
73150;SDS011;61354;50.758;6.106;2024-01-11T03:40:17;14.27;;;7.25;;
73150;SDS011;61354;50.758;6.106;2024-01-11T03:43:00;16.00;;;7.32;;
73150;SDS011;61354;50.758;6.106;2024-01-11T03:45:44;16.15;;;6.88;;
73150;SDS011;61354;50.758;6.106;2024-01-11T03:48:28;12.68;;;6.72;;
73150;SDS011;61354;50.758;6.106;2024-01-11T03:51:12;13.15;;;6.63;;
73150;SDS011;61354;50.758;6.106;2024-01-11T03:53:56;13.63;;;6.20;;
73150;SDS011;61354;50.758;6.106;2024-01-11T03:56:40;15.50;;;8.02;;
73150;SDS011;61354;50.758;6.106;2024-01-11T03:59:24;16.13;;;8.02;;
73150;SDS011;61354;50.758;6.106;2024-01-11T04:02:08;12.27;;;6.78;;
73150;SDS011;61354;50.758;6.106;2024-01-11T04:04:52;13.93;;;6.80;;
73150;SDS011;61354;50.758;6.106;2024-01-11T04:07:37;15.82;;;7.63;;
73150;SDS011;61354;50.758;6.106;2024-01-11T04:10:21;21.27;;;8.82;;
73150;SDS011;61354;50.758;6.106;2024-01-11T04:13:06;12.52;;;6.85;;
73150;SDS011;61354;50.758;6.106;2024-01-11T04:15:51;16.58;;;7.35;;
73150;SDS011;61354;50.758;6.106;2024-01-11T04:18:35;11.90;;;6.32;;
73150;SDS011;61354;50.758;6.106;2024-01-11T04:21:22;16.67;;;7.53;;
73150;SDS011;61354;50.758;6.106;2024-01-11T04:24:13;15.32;;;7.30;;
73150;SDS011;61354;50.758;6.106;2024-01-11T04:26:57;10.70;;;6.07;;
73150;SDS011;61354;50.758;6.106;2024-01-11T04:29:41;13.18;;;6.93;;
73150;SDS011;61354;50.758;6.106;2024-01-11T04:32:25;16.35;;;7.38;;
73150;SDS011;61354;50.758;6.106;2024-01-11T04:35:08;13.57;;;7.43;;
73150;SDS011;61354;50.758;6.106;2024-01-11T04:37:53;17.50;;;7.40;;
73150;SDS011;61354;50.758;6.106;2024-01-11T04:40:37;14.73;;;7.45;;
73150;SDS011;61354;50.758;6.106;2024-01-11T04:43:22;17.38;;;7.68;;
73150;SDS011;61354;50.758;6.106;2024-01-11T04:46:19;12.57;;;7.25;;
73150;SDS011;61354;50.758;6.106;2024-01-11T04:49:03;12.63;;;6.70;;
73150;SDS011;61354;50.758;6.106;2024-01-11T04:51:47;13.75;;;7.03;;
73150;SDS011;61354;50.758;6.106;2024-01-11T04:54:31;16.75;;;6.93;;
73150;SDS011;61354;50.758;6.106;2024-01-11T04:57:15;13.48;;;7.10;;
73150;SDS011;61354;50.758;6.106;2024-01-11T05:00:00;14.25;;;6.90;;
73150;SDS011;61354;50.758;6.106;2024-01-11T05:02:44;16.55;;;7.20;;
73150;SDS011;61354;50.758;6.106;2024-01-11T05:05:28;18.70;;;8.45;;
73150;SDS011;61354;50.758;6.106;2024-01-11T05:08:12;16.80;;;7.35;;
73150;SDS011;61354;50.758;6.106;2024-01-11T05:10:56;14.68;;;7.18;;
73150;SDS011;61354;50.758;6.106;2024-01-11T05:13:40;15.93;;;7.28;;
73150;SDS011;61354;50.758;6.106;2024-01-11T05:16:24;15.02;;;7.45;;
73150;SDS011;61354;50.758;6.106;2024-01-11T05:19:09;19.08;;;8.45;;
73150;SDS011;61354;50.758;6.106;2024-01-11T05:21:53;22.17;;;7.13;;
73150;SDS011;61354;50.758;6.106;2024-01-11T05:24:37;12.27;;;7.43;;
73150;SDS011;61354;50.758;6.106;2024-01-11T05:27:21;20.30;;;8.70;;
73150;SDS011;61354;50.758;6.106;2024-01-11T05:30:05;14.07;;;7.88;;
73150;SDS011;61354;50.758;6.106;2024-01-11T05:32:50;13.18;;;8.15;;
73150;SDS011;61354;50.758;6.106;2024-01-11T05:35:34;17.60;;;8.32;;
73150;SDS011;61354;50.758;6.106;2024-01-11T05:38:18;13.93;;;7.70;;
73150;SDS011;61354;50.758;6.106;2024-01-11T05:41:02;19.92;;;8.00;;
73150;SDS011;61354;50.758;6.106;2024-01-11T05:43:46;15.32;;;7.75;;
73150;SDS011;61354;50.758;6.106;2024-01-11T05:46:30;16.80;;;7.32;;
73150;SDS011;61354;50.758;6.106;2024-01-11T05:49:14;20.50;;;9.25;;
73150;SDS011;61354;50.758;6.106;2024-01-11T05:51:58;14.38;;;7.90;;
73150;SDS011;61354;50.758;6.106;2024-01-11T05:54:42;16.13;;;7.53;;
73150;SDS011;61354;50.758;6.106;2024-01-11T05:57:26;16.45;;;7.68;;
73150;SDS011;61354;50.758;6.106;2024-01-11T06:00:10;16.67;;;8.13;;
73150;SDS011;61354;50.758;6.106;2024-01-11T06:02:54;15.38;;;7.47;;
73150;SDS011;61354;50.758;6.106;2024-01-11T06:05:38;17.83;;;8.00;;
73150;SDS011;61354;50.758;6.106;2024-01-11T06:08:23;16.73;;;7.47;;
73150;SDS011;61354;50.758;6.106;2024-01-11T06:11:07;18.23;;;7.68;;
73150;SDS011;61354;50.758;6.106;2024-01-11T06:13:51;17.63;;;8.30;;
73150;SDS011;61354;50.758;6.106;2024-01-11T06:16:35;17.40;;;8.57;;
73150;SDS011;61354;50.758;6.106;2024-01-11T06:19:19;19.50;;;8.07;;
73150;SDS011;61354;50.758;6.106;2024-01-11T06:22:03;16.33;;;7.82;;
73150;SDS011;61354;50.758;6.106;2024-01-11T06:24:48;18.75;;;8.50;;
73150;SDS011;61354;50.758;6.106;2024-01-11T06:27:32;14.95;;;6.68;;
73150;SDS011;61354;50.758;6.106;2024-01-11T06:30:16;15.60;;;9.32;;
73150;SDS011;61354;50.758;6.106;2024-01-11T06:33:01;13.50;;;7.95;;
73150;SDS011;61354;50.758;6.106;2024-01-11T06:35:45;16.17;;;7.72;;
73150;SDS011;61354;50.758;6.106;2024-01-11T06:38:28;16.98;;;7.63;;
73150;SDS011;61354;50.758;6.106;2024-01-11T06:41:13;14.45;;;8.02;;
73150;SDS011;61354;50.758;6.106;2024-01-11T06:43:57;15.52;;;7.70;;
73150;SDS011;61354;50.758;6.106;2024-01-11T06:46:41;16.00;;;7.72;;
73150;SDS011;61354;50.758;6.106;2024-01-11T06:49:27;15.38;;;8.05;;
73150;SDS011;61354;50.758;6.106;2024-01-11T06:52:11;14.77;;;8.43;;
73150;SDS011;61354;50.758;6.106;2024-01-11T06:54:55;12.82;;;7.35;;
73150;SDS011;61354;50.758;6.106;2024-01-11T06:57:39;15.77;;;8.02;;
73150;SDS011;61354;50.758;6.106;2024-01-11T07:00:23;16.88;;;8.02;;
73150;SDS011;61354;50.758;6.106;2024-01-11T07:03:07;16.92;;;8.80;;
73150;SDS011;61354;50.758;6.106;2024-01-11T07:05:51;19.98;;;9.88;;
73150;SDS011;61354;50.758;6.106;2024-01-11T07:08:35;18.58;;;9.02;;
73150;SDS011;61354;50.758;6.106;2024-01-11T07:11:19;17.13;;;8.43;;
73150;SDS011;61354;50.758;6.106;2024-01-11T07:14:03;18.65;;;8.50;;
73150;SDS011;61354;50.758;6.106;2024-01-11T07:16:47;13.48;;;8.13;;
73150;SDS011;61354;50.758;6.106;2024-01-11T07:19:33;17.83;;;8.70;;
73150;SDS011;61354;50.758;6.106;2024-01-11T07:22:17;14.88;;;7.43;;
73150;SDS011;61354;50.758;6.106;2024-01-11T07:25:01;16.02;;;7.15;;
73150;SDS011;61354;50.758;6.106;2024-01-11T07:27:44;19.42;;;7.43;;
73150;SDS011;61354;50.758;6.106;2024-01-11T07:30:29;19.33;;;8.75;;
73150;SDS011;61354;50.758;6.106;2024-01-11T07:33:13;19.80;;;8.40;;
73150;SDS011;61354;50.758;6.106;2024-01-11T07:35:57;12.52;;;7.68;;
73150;SDS011;61354;50.758;6.106;2024-01-11T07:38:42;19.02;;;8.02;;
73150;SDS011;61354;50.758;6.106;2024-01-11T07:41:26;19.65;;;8.30;;
73150;SDS011;61354;50.758;6.106;2024-01-11T07:44:10;19.90;;;10.20;;
73150;SDS011;61354;50.758;6.106;2024-01-11T07:46:54;19.77;;;7.97;;
73150;SDS011;61354;50.758;6.106;2024-01-11T07:49:38;19.73;;;7.65;;
73150;SDS011;61354;50.758;6.106;2024-01-11T07:52:23;15.45;;;7.22;;
73150;SDS011;61354;50.758;6.106;2024-01-11T07:55:09;14.20;;;7.53;;
73150;SDS011;61354;50.758;6.106;2024-01-11T07:57:54;14.77;;;6.93;;
73150;SDS011;61354;50.758;6.106;2024-01-11T08:00:38;17.42;;;6.93;;
73150;SDS011;61354;50.758;6.106;2024-01-11T08:03:22;24.15;;;8.00;;
73150;SDS011;61354;50.758;6.106;2024-01-11T08:06:07;20.05;;;9.27;;
73150;SDS011;61354;50.758;6.106;2024-01-11T08:08:51;14.15;;;7.60;;
73150;SDS011;61354;50.758;6.106;2024-01-11T08:11:35;16.13;;;8.65;;
73150;SDS011;61354;50.758;6.106;2024-01-11T08:14:19;16.23;;;7.30;;
73150;SDS011;61354;50.758;6.106;2024-01-11T08:17:03;17.33;;;7.63;;
73150;SDS011;61354;50.758;6.106;2024-01-11T08:19:48;13.48;;;8.00;;
73150;SDS011;61354;50.758;6.106;2024-01-11T08:22:32;13.07;;;7.38;;
73150;SDS011;61354;50.758;6.106;2024-01-11T08:25:18;20.05;;;8.38;;
73150;SDS011;61354;50.758;6.106;2024-01-11T08:28:02;14.88;;;8.18;;
73150;SDS011;61354;50.758;6.106;2024-01-11T08:30:46;19.00;;;7.90;;
73150;SDS011;61354;50.758;6.106;2024-01-11T08:33:30;14.80;;;8.82;;
73150;SDS011;61354;50.758;6.106;2024-01-11T08:36:14;18.40;;;8.90;;
73150;SDS011;61354;50.758;6.106;2024-01-11T08:38:58;17.48;;;8.38;;
73150;SDS011;61354;50.758;6.106;2024-01-11T08:41:42;13.63;;;7.60;;
73150;SDS011;61354;50.758;6.106;2024-01-11T08:44:26;20.73;;;9.95;;
73150;SDS011;61354;50.758;6.106;2024-01-11T08:47:10;18.25;;;9.25;;
73150;SDS011;61354;50.758;6.106;2024-01-11T08:49:54;20.42;;;9.07;;
73150;SDS011;61354;50.758;6.106;2024-01-11T08:52:40;17.95;;;8.55;;
73150;SDS011;61354;50.758;6.106;2024-01-11T08:55:25;18.23;;;10.48;;
73150;SDS011;61354;50.758;6.106;2024-01-11T08:58:09;19.70;;;9.68;;
73150;SDS011;61354;50.758;6.106;2024-01-11T09:00:54;18.60;;;9.73;;
73150;SDS011;61354;50.758;6.106;2024-01-11T09:03:38;22.27;;;10.20;;
73150;SDS011;61354;50.758;6.106;2024-01-11T09:06:21;21.00;;;9.60;;
73150;SDS011;61354;50.758;6.106;2024-01-11T09:09:06;19.10;;;9.75;;
73150;SDS011;61354;50.758;6.106;2024-01-11T09:11:53;20.25;;;8.63;;
73150;SDS011;61354;50.758;6.106;2024-01-11T09:14:37;18.10;;;8.82;;
73150;SDS011;61354;50.758;6.106;2024-01-11T09:17:22;18.48;;;10.90;;
73150;SDS011;61354;50.758;6.106;2024-01-11T09:20:06;21.65;;;10.82;;
73150;SDS011;61354;50.758;6.106;2024-01-11T09:22:51;18.27;;;9.45;;
73150;SDS011;61354;50.758;6.106;2024-01-11T09:25:34;22.55;;;10.77;;
73150;SDS011;61354;50.758;6.106;2024-01-11T09:28:18;23.55;;;10.20;;
73150;SDS011;61354;50.758;6.106;2024-01-11T09:31:02;29.95;;;11.70;;
73150;SDS011;61354;50.758;6.106;2024-01-11T09:33:47;22.65;;;10.75;;
73150;SDS011;61354;50.758;6.106;2024-01-11T09:36:32;22.58;;;11.52;;
73150;SDS011;61354;50.758;6.106;2024-01-11T09:39:17;20.58;;;11.43;;
73150;SDS011;61354;50.758;6.106;2024-01-11T09:42:07;22.05;;;11.20;;
73150;SDS011;61354;50.758;6.106;2024-01-11T09:44:55;22.83;;;10.48;;
73150;SDS011;61354;50.758;6.106;2024-01-11T09:47:40;26.05;;;12.02;;
73150;SDS011;61354;50.758;6.106;2024-01-11T09:50:25;23.65;;;11.18;;
73150;SDS011;61354;50.758;6.106;2024-01-11T09:53:09;25.35;;;11.40;;
73150;SDS011;61354;50.758;6.106;2024-01-11T09:55:53;20.83;;;11.68;;
73150;SDS011;61354;50.758;6.106;2024-01-11T09:58:40;22.90;;;11.50;;
73150;SDS011;61354;50.758;6.106;2024-01-11T10:01:32;24.38;;;11.20;;
73150;SDS011;61354;50.758;6.106;2024-01-11T10:04:16;23.90;;;11.75;;
73150;SDS011;61354;50.758;6.106;2024-01-11T10:07:01;25.10;;;12.15;;
73150;SDS011;61354;50.758;6.106;2024-01-11T10:09:48;22.30;;;11.88;;
73150;SDS011;61354;50.758;6.106;2024-01-11T10:12:36;26.60;;;12.48;;
73150;SDS011;61354;50.758;6.106;2024-01-11T10:15:21;24.48;;;11.95;;
73150;SDS011;61354;50.758;6.106;2024-01-11T10:18:08;23.42;;;10.98;;
73150;SDS011;61354;50.758;6.106;2024-01-11T10:20:52;23.08;;;10.65;;
73150;SDS011;61354;50.758;6.106;2024-01-11T10:23:36;23.50;;;11.68;;
73150;SDS011;61354;50.758;6.106;2024-01-11T10:26:20;28.50;;;13.77;;
73150;SDS011;61354;50.758;6.106;2024-01-11T10:29:05;26.70;;;13.75;;
73150;SDS011;61354;50.758;6.106;2024-01-11T10:31:54;23.40;;;11.82;;
73150;SDS011;61354;50.758;6.106;2024-01-11T10:34:38;23.42;;;11.93;;
73150;SDS011;61354;50.758;6.106;2024-01-11T10:37:25;23.67;;;12.40;;
73150;SDS011;61354;50.758;6.106;2024-01-11T10:40:10;24.63;;;13.50;;
73150;SDS011;61354;50.758;6.106;2024-01-11T10:42:56;26.05;;;12.48;;
73150;SDS011;61354;50.758;6.106;2024-01-11T10:45:45;23.02;;;13.35;;
73150;SDS011;61354;50.758;6.106;2024-01-11T10:48:33;27.73;;;12.55;;
73150;SDS011;61354;50.758;6.106;2024-01-11T10:51:20;24.83;;;13.07;;
73150;SDS011;61354;50.758;6.106;2024-01-11T10:54:07;28.02;;;13.18;;
73150;SDS011;61354;50.758;6.106;2024-01-11T10:56:51;23.92;;;13.02;;
73150;SDS011;61354;50.758;6.106;2024-01-11T10:59:37;25.27;;;12.48;;
73150;SDS011;61354;50.758;6.106;2024-01-11T11:02:21;23.38;;;13.32;;
73150;SDS011;61354;50.758;6.106;2024-01-11T11:05:06;31.25;;;14.02;;
73150;SDS011;61354;50.758;6.106;2024-01-11T11:07:53;25.55;;;13.02;;
73150;SDS011;61354;50.758;6.106;2024-01-11T11:10:38;27.15;;;12.88;;
73150;SDS011;61354;50.758;6.106;2024-01-11T11:13:24;27.75;;;14.25;;
73150;SDS011;61354;50.758;6.106;2024-01-11T11:16:09;25.10;;;14.95;;
73150;SDS011;61354;50.758;6.106;2024-01-11T11:18:56;28.02;;;13.98;;
73150;SDS011;61354;50.758;6.106;2024-01-11T11:21:41;31.75;;;14.98;;
73150;SDS011;61354;50.758;6.106;2024-01-11T11:24:26;28.48;;;12.88;;
73150;SDS011;61354;50.758;6.106;2024-01-11T11:27:13;26.83;;;14.02;;
73150;SDS011;61354;50.758;6.106;2024-01-11T11:29:58;28.63;;;13.48;;
73150;SDS011;61354;50.758;6.106;2024-01-11T11:32:42;31.55;;;15.23;;
73150;SDS011;61354;50.758;6.106;2024-01-11T11:35:27;27.63;;;13.85;;
73150;SDS011;61354;50.758;6.106;2024-01-11T11:38:18;29.40;;;15.32;;
73150;SDS011;61354;50.758;6.106;2024-01-11T11:41:04;28.83;;;14.75;;
73150;SDS011;61354;50.758;6.106;2024-01-11T11:43:48;34.10;;;13.65;;
73150;SDS011;61354;50.758;6.106;2024-01-11T11:46:32;36.13;;;16.45;;
73150;SDS011;61354;50.758;6.106;2024-01-11T11:49:17;30.35;;;14.35;;
73150;SDS011;61354;50.758;6.106;2024-01-11T11:52:01;30.27;;;14.40;;
73150;SDS011;61354;50.758;6.106;2024-01-11T11:54:44;27.95;;;13.75;;
73150;SDS011;61354;50.758;6.106;2024-01-11T11:57:28;40.33;;;18.60;;
73150;SDS011;61354;50.758;6.106;2024-01-11T12:00:12;23.48;;;13.90;;
73150;SDS011;61354;50.758;6.106;2024-01-11T12:02:57;24.52;;;12.93;;
73150;SDS011;61354;50.758;6.106;2024-01-11T12:05:42;36.17;;;16.65;;
73150;SDS011;61354;50.758;6.106;2024-01-11T12:08:27;25.00;;;13.32;;
73150;SDS011;61354;50.758;6.106;2024-01-11T12:11:29;28.70;;;14.05;;
73150;SDS011;61354;50.758;6.106;2024-01-11T12:14:14;31.65;;;14.85;;
73150;SDS011;61354;50.758;6.106;2024-01-11T12:16:58;25.00;;;13.52;;
73150;SDS011;61354;50.758;6.106;2024-01-11T12:19:42;24.88;;;13.73;;
73150;SDS011;61354;50.758;6.106;2024-01-11T12:22:26;27.52;;;14.13;;
73150;SDS011;61354;50.758;6.106;2024-01-11T12:25:10;30.95;;;14.15;;
73150;SDS011;61354;50.758;6.106;2024-01-11T12:27:54;27.92;;;14.05;;
73150;SDS011;61354;50.758;6.106;2024-01-11T12:30:39;26.58;;;13.85;;
73150;SDS011;61354;50.758;6.106;2024-01-11T12:33:22;26.75;;;14.43;;
73150;SDS011;61354;50.758;6.106;2024-01-11T12:38:52;25.40;;;12.35;;
73150;SDS011;61354;50.758;6.106;2024-01-11T12:41:36;22.27;;;10.98;;
73150;SDS011;61354;50.758;6.106;2024-01-11T12:44:20;24.20;;;12.23;;
73150;SDS011;61354;50.758;6.106;2024-01-11T12:47:04;23.08;;;11.70;;
73150;SDS011;61354;50.758;6.106;2024-01-11T12:49:49;23.67;;;12.25;;
73150;SDS011;61354;50.758;6.106;2024-01-11T12:52:35;23.75;;;12.20;;
73150;SDS011;61354;50.758;6.106;2024-01-11T12:55:19;24.45;;;12.20;;
73150;SDS011;61354;50.758;6.106;2024-01-11T12:58:04;23.38;;;12.07;;
73150;SDS011;61354;50.758;6.106;2024-01-11T13:00:52;24.17;;;12.02;;
73150;SDS011;61354;50.758;6.106;2024-01-11T13:03:38;25.63;;;12.27;;
73150;SDS011;61354;50.758;6.106;2024-01-11T13:09:07;17.15;;;8.93;;
73150;SDS011;61354;50.758;6.106;2024-01-11T13:11:52;26.17;;;14.00;;
73150;SDS011;61354;50.758;6.106;2024-01-11T13:14:35;22.92;;;12.25;;
73150;SDS011;61354;50.758;6.106;2024-01-11T13:17:19;21.65;;;12.30;;
73150;SDS011;61354;50.758;6.106;2024-01-11T13:20:05;22.13;;;12.77;;
73150;SDS011;61354;50.758;6.106;2024-01-11T13:26:04;26.85;;;11.80;;
73150;SDS011;61354;50.758;6.106;2024-01-11T13:28:48;20.63;;;11.27;;
73150;SDS011;61354;50.758;6.106;2024-01-11T13:31:33;25.58;;;12.32;;
73150;SDS011;61354;50.758;6.106;2024-01-11T13:34:17;28.02;;;13.90;;
73150;SDS011;61354;50.758;6.106;2024-01-11T13:37:00;28.48;;;14.60;;
73150;SDS011;61354;50.758;6.106;2024-01-11T13:39:46;24.83;;;13.43;;
73150;SDS011;61354;50.758;6.106;2024-01-11T13:42:32;25.10;;;13.18;;
73150;SDS011;61354;50.758;6.106;2024-01-11T13:45:16;24.17;;;12.63;;
73150;SDS011;61354;50.758;6.106;2024-01-11T13:48:00;27.40;;;13.02;;
73150;SDS011;61354;50.758;6.106;2024-01-11T13:50:44;23.25;;;13.38;;
73150;SDS011;61354;50.758;6.106;2024-01-11T13:53:28;24.38;;;13.13;;
73150;SDS011;61354;50.758;6.106;2024-01-11T13:56:12;26.05;;;12.95;;
73150;SDS011;61354;50.758;6.106;2024-01-11T13:58:56;22.50;;;12.50;;
73150;SDS011;61354;50.758;6.106;2024-01-11T14:01:40;17.70;;;10.48;;
73150;SDS011;61354;50.758;6.106;2024-01-11T14:04:24;29.33;;;13.55;;
73150;SDS011;61354;50.758;6.106;2024-01-11T14:07:08;23.58;;;11.57;;
73150;SDS011;61354;50.758;6.106;2024-01-11T14:09:52;23.65;;;13.07;;
73150;SDS011;61354;50.758;6.106;2024-01-11T14:12:36;24.83;;;12.48;;
73150;SDS011;61354;50.758;6.106;2024-01-11T14:15:20;27.80;;;14.15;;
73150;SDS011;61354;50.758;6.106;2024-01-11T14:18:05;33.13;;;16.17;;
73150;SDS011;61354;50.758;6.106;2024-01-11T14:20:50;25.95;;;13.70;;
73150;SDS011;61354;50.758;6.106;2024-01-11T14:23:34;27.88;;;14.38;;
73150;SDS011;61354;50.758;6.106;2024-01-11T14:26:18;25.63;;;13.48;;
73150;SDS011;61354;50.758;6.106;2024-01-11T14:29:02;26.75;;;13.48;;
73150;SDS011;61354;50.758;6.106;2024-01-11T14:31:46;27.75;;;14.40;;
73150;SDS011;61354;50.758;6.106;2024-01-11T14:34:30;25.45;;;14.32;;
73150;SDS011;61354;50.758;6.106;2024-01-11T14:37:14;24.35;;;12.95;;
73150;SDS011;61354;50.758;6.106;2024-01-11T14:39:58;29.75;;;15.07;;
73150;SDS011;61354;50.758;6.106;2024-01-11T14:42:43;32.83;;;15.40;;
73150;SDS011;61354;50.758;6.106;2024-01-11T14:45:26;30.52;;;15.27;;
73150;SDS011;61354;50.758;6.106;2024-01-11T14:48:10;27.33;;;14.45;;
73150;SDS011;61354;50.758;6.106;2024-01-11T14:50:55;35.08;;;14.73;;
73150;SDS011;61354;50.758;6.106;2024-01-11T14:53:39;23.23;;;12.35;;
73150;SDS011;61354;50.758;6.106;2024-01-11T14:56:24;25.75;;;12.65;;
73150;SDS011;61354;50.758;6.106;2024-01-11T14:59:08;27.52;;;13.25;;
73150;SDS011;61354;50.758;6.106;2024-01-11T15:01:53;26.05;;;14.00;;
73150;SDS011;61354;50.758;6.106;2024-01-11T15:04:37;25.13;;;13.43;;
73150;SDS011;61354;50.758;6.106;2024-01-11T15:07:22;21.80;;;14.02;;
73150;SDS011;61354;50.758;6.106;2024-01-11T15:10:06;25.17;;;13.20;;
73150;SDS011;61354;50.758;6.106;2024-01-11T15:12:50;26.00;;;14.55;;
73150;SDS011;61354;50.758;6.106;2024-01-11T15:15:34;28.92;;;13.35;;
73150;SDS011;61354;50.758;6.106;2024-01-11T15:18:18;23.70;;;12.93;;
73150;SDS011;61354;50.758;6.106;2024-01-11T15:21:02;24.98;;;12.50;;
73150;SDS011;61354;50.758;6.106;2024-01-11T15:23:47;26.92;;;13.52;;
73150;SDS011;61354;50.758;6.106;2024-01-11T15:26:30;29.70;;;13.48;;
73150;SDS011;61354;50.758;6.106;2024-01-11T15:29:14;31.80;;;13.75;;
73150;SDS011;61354;50.758;6.106;2024-01-11T15:31:58;23.48;;;11.88;;
73150;SDS011;61354;50.758;6.106;2024-01-11T15:34:42;27.55;;;14.63;;
73150;SDS011;61354;50.758;6.106;2024-01-11T15:37:27;23.90;;;12.77;;
73150;SDS011;61354;50.758;6.106;2024-01-11T15:40:12;26.45;;;13.35;;
73150;SDS011;61354;50.758;6.106;2024-01-11T15:42:56;23.27;;;12.18;;
73150;SDS011;61354;50.758;6.106;2024-01-11T15:45:41;27.63;;;14.02;;
73150;SDS011;61354;50.758;6.106;2024-01-11T15:48:25;26.73;;;12.15;;
73150;SDS011;61354;50.758;6.106;2024-01-11T15:51:10;27.33;;;13.73;;
73150;SDS011;61354;50.758;6.106;2024-01-11T15:53:54;26.73;;;13.68;;
73150;SDS011;61354;50.758;6.106;2024-01-11T15:56:38;25.00;;;12.88;;
73150;SDS011;61354;50.758;6.106;2024-01-11T15:59:22;29.55;;;13.27;;
73150;SDS011;61354;50.758;6.106;2024-01-11T16:02:06;24.80;;;13.07;;
73150;SDS011;61354;50.758;6.106;2024-01-11T16:04:50;23.77;;;11.30;;
73150;SDS011;61354;50.758;6.106;2024-01-11T16:07:34;22.95;;;10.75;;
73150;SDS011;61354;50.758;6.106;2024-01-11T16:10:19;21.75;;;12.05;;
73150;SDS011;61354;50.758;6.106;2024-01-11T16:13:03;23.10;;;11.43;;
73150;SDS011;61354;50.758;6.106;2024-01-11T16:15:47;22.13;;;12.55;;
73150;SDS011;61354;50.758;6.106;2024-01-11T16:18:34;23.67;;;12.30;;